sensor_id;sensor_type;location;lat;lon;timestamp;temperature;humidity
24676;DHT22;12799;53.690;10.114;2022-07-06T00:00:19;16.10;99.90
24676;DHT22;12799;53.690;10.114;2022-07-06T00:02:21;16.20;99.90
24676;DHT22;12799;53.690;10.114;2022-07-06T00:04:23;16.10;99.90
24676;DHT22;12799;53.690;10.114;2022-07-06T00:06:25;16.10;99.90
24676;DHT22;12799;53.690;10.114;2022-07-06T00:08:27;16.10;99.90
24676;DHT22;12799;53.690;10.114;2022-07-06T00:10:29;16.00;99.90
24676;DHT22;12799;53.690;10.114;2022-07-06T00:12:31;16.00;99.90
24676;DHT22;12799;53.690;10.114;2022-07-06T00:14:33;16.00;99.90
24676;DHT22;12799;53.690;10.114;2022-07-06T00:16:36;16.00;99.90
24676;DHT22;12799;53.690;10.114;2022-07-06T00:18:38;16.00;99.90
24676;DHT22;12799;53.690;10.114;2022-07-06T00:20:40;16.00;99.90
24676;DHT22;12799;53.690;10.114;2022-07-06T00:22:42;16.00;99.90
24676;DHT22;12799;53.690;10.114;2022-07-06T00:24:44;16.00;99.90
24676;DHT22;12799;53.690;10.114;2022-07-06T00:26:46;16.00;99.90
24676;DHT22;12799;53.690;10.114;2022-07-06T00:28:48;16.00;99.90
24676;DHT22;12799;53.690;10.114;2022-07-06T00:30:50;16.00;99.90
24676;DHT22;12799;53.690;10.114;2022-07-06T00:32:53;15.90;99.90
24676;DHT22;12799;53.690;10.114;2022-07-06T00:34:55;16.00;99.90
24676;DHT22;12799;53.690;10.114;2022-07-06T00:36:57;16.00;99.90
24676;DHT22;12799;53.690;10.114;2022-07-06T00:38:59;15.90;99.90
24676;DHT22;12799;53.690;10.114;2022-07-06T00:41:01;15.90;99.90
24676;DHT22;12799;53.690;10.114;2022-07-06T00:43:04;15.90;99.90
24676;DHT22;12799;53.690;10.114;2022-07-06T00:45:06;15.90;99.90
24676;DHT22;12799;53.690;10.114;2022-07-06T00:47:08;15.90;99.90
24676;DHT22;12799;53.690;10.114;2022-07-06T00:49:11;16.00;99.90
24676;DHT22;12799;53.690;10.114;2022-07-06T00:51:36;16.00;99.90
24676;DHT22;12799;53.690;10.114;2022-07-06T00:53:40;15.90;99.90
24676;DHT22;12799;53.690;10.114;2022-07-06T00:55:42;15.80;99.90
24676;DHT22;12799;53.690;10.114;2022-07-06T00:57:44;15.90;99.90
24676;DHT22;12799;53.690;10.114;2022-07-06T00:59:47;15.90;99.90
24676;DHT22;12799;53.690;10.114;2022-07-06T01:01:49;15.90;99.90
24676;DHT22;12799;53.690;10.114;2022-07-06T01:03:51;15.90;99.90
24676;DHT22;12799;53.690;10.114;2022-07-06T01:05:54;15.90;99.90
24676;DHT22;12799;53.690;10.114;2022-07-06T01:07:56;15.80;99.90
24676;DHT22;12799;53.690;10.114;2022-07-06T01:09:58;15.80;99.90
24676;DHT22;12799;53.690;10.114;2022-07-06T01:12:00;15.70;99.90
24676;DHT22;12799;53.690;10.114;2022-07-06T01:14:02;15.80;99.90
24676;DHT22;12799;53.690;10.114;2022-07-06T01:16:05;15.80;99.90
24676;DHT22;12799;53.690;10.114;2022-07-06T01:18:09;15.80;99.90
24676;DHT22;12799;53.690;10.114;2022-07-06T01:20:14;15.80;99.90
24676;DHT22;12799;53.690;10.114;2022-07-06T01:22:16;15.80;99.90
24676;DHT22;12799;53.690;10.114;2022-07-06T01:24:18;15.80;99.90
24676;DHT22;12799;53.690;10.114;2022-07-06T01:26:21;15.70;99.90
24676;DHT22;12799;53.690;10.114;2022-07-06T01:28:23;15.70;99.90
24676;DHT22;12799;53.690;10.114;2022-07-06T01:30:25;15.60;99.90
24676;DHT22;12799;53.690;10.114;2022-07-06T01:32:27;15.60;99.90
24676;DHT22;12799;53.690;10.114;2022-07-06T01:34:29;15.60;99.90
24676;DHT22;12799;53.690;10.114;2022-07-06T01:36:33;15.60;99.90
24676;DHT22;12799;53.690;10.114;2022-07-06T01:38:44;15.60;99.90
24676;DHT22;12799;53.690;10.114;2022-07-06T01:40:46;15.60;99.90
24676;DHT22;12799;53.690;10.114;2022-07-06T01:42:48;15.50;99.90
24676;DHT22;12799;53.690;10.114;2022-07-06T01:44:49;15.50;99.90
24676;DHT22;12799;53.690;10.114;2022-07-06T01:46:51;15.50;99.90
24676;DHT22;12799;53.690;10.114;2022-07-06T01:48:53;15.50;99.90
24676;DHT22;12799;53.690;10.114;2022-07-06T01:50:55;15.50;99.90
24676;DHT22;12799;53.690;10.114;2022-07-06T01:53:00;15.50;99.90
24676;DHT22;12799;53.690;10.114;2022-07-06T01:55:03;15.40;99.90
24676;DHT22;12799;53.690;10.114;2022-07-06T01:57:05;15.50;99.90
24676;DHT22;12799;53.690;10.114;2022-07-06T01:59:07;15.40;99.90
24676;DHT22;12799;53.690;10.114;2022-07-06T02:01:10;15.50;99.90
24676;DHT22;12799;53.690;10.114;2022-07-06T02:03:13;15.50;99.90
24676;DHT22;12799;53.690;10.114;2022-07-06T02:05:15;15.40;99.90
24676;DHT22;12799;53.690;10.114;2022-07-06T02:07:17;15.30;99.90
24676;DHT22;12799;53.690;10.114;2022-07-06T02:09:20;15.20;99.90
24676;DHT22;12799;53.690;10.114;2022-07-06T02:11:22;15.20;99.90
24676;DHT22;12799;53.690;10.114;2022-07-06T02:13:24;15.10;99.90
24676;DHT22;12799;53.690;10.114;2022-07-06T02:15:26;15.10;99.90
24676;DHT22;12799;53.690;10.114;2022-07-06T02:17:28;15.10;99.90
24676;DHT22;12799;53.690;10.114;2022-07-06T02:19:30;15.10;99.90
24676;DHT22;12799;53.690;10.114;2022-07-06T02:21:32;15.20;99.90
24676;DHT22;12799;53.690;10.114;2022-07-06T02:23:34;15.20;99.90
24676;DHT22;12799;53.690;10.114;2022-07-06T02:25:37;15.10;99.90
24676;DHT22;12799;53.690;10.114;2022-07-06T02:27:39;15.00;99.90
24676;DHT22;12799;53.690;10.114;2022-07-06T02:29:41;15.00;99.90
24676;DHT22;12799;53.690;10.114;2022-07-06T02:31:43;15.00;99.90
24676;DHT22;12799;53.690;10.114;2022-07-06T02:33:45;15.00;99.90
24676;DHT22;12799;53.690;10.114;2022-07-06T02:35:47;15.00;99.90
24676;DHT22;12799;53.690;10.114;2022-07-06T02:37:49;14.90;99.90
24676;DHT22;12799;53.690;10.114;2022-07-06T02:39:51;14.90;99.90
24676;DHT22;12799;53.690;10.114;2022-07-06T02:41:55;15.00;99.90
24676;DHT22;12799;53.690;10.114;2022-07-06T02:43:57;15.00;99.90
24676;DHT22;12799;53.690;10.114;2022-07-06T02:45:58;15.00;99.90
24676;DHT22;12799;53.690;10.114;2022-07-06T02:48:01;15.00;99.90
24676;DHT22;12799;53.690;10.114;2022-07-06T02:50:03;15.00;99.90
24676;DHT22;12799;53.690;10.114;2022-07-06T02:52:05;15.00;99.90
24676;DHT22;12799;53.690;10.114;2022-07-06T02:54:07;15.00;99.90
24676;DHT22;12799;53.690;10.114;2022-07-06T02:56:09;15.00;99.90
24676;DHT22;12799;53.690;10.114;2022-07-06T02:58:12;15.00;99.90
24676;DHT22;12799;53.690;10.114;2022-07-06T03:00:15;15.00;99.90
24676;DHT22;12799;53.690;10.114;2022-07-06T03:02:17;15.00;99.90
24676;DHT22;12799;53.690;10.114;2022-07-06T03:04:19;15.00;99.90
24676;DHT22;12799;53.690;10.114;2022-07-06T03:06:21;15.00;99.90
24676;DHT22;12799;53.690;10.114;2022-07-06T03:08:23;15.00;99.90
24676;DHT22;12799;53.690;10.114;2022-07-06T03:10:25;15.00;99.90
24676;DHT22;12799;53.690;10.114;2022-07-06T03:12:27;15.00;99.90
24676;DHT22;12799;53.690;10.114;2022-07-06T03:14:30;15.00;99.90
24676;DHT22;12799;53.690;10.114;2022-07-06T03:16:32;14.90;99.90
24676;DHT22;12799;53.690;10.114;2022-07-06T03:18:34;14.90;99.90
24676;DHT22;12799;53.690;10.114;2022-07-06T03:20:36;14.90;99.90
24676;DHT22;12799;53.690;10.114;2022-07-06T03:22:38;14.90;99.90
24676;DHT22;12799;53.690;10.114;2022-07-06T03:24:40;14.90;99.90
24676;DHT22;12799;53.690;10.114;2022-07-06T03:26:42;14.90;99.90
24676;DHT22;12799;53.690;10.114;2022-07-06T03:28:44;14.90;99.90
24676;DHT22;12799;53.690;10.114;2022-07-06T03:30:48;15.00;99.90
24676;DHT22;12799;53.690;10.114;2022-07-06T03:32:49;15.00;99.90
24676;DHT22;12799;53.690;10.114;2022-07-06T03:34:51;15.00;99.90
24676;DHT22;12799;53.690;10.114;2022-07-06T03:36:53;15.00;99.90
24676;DHT22;12799;53.690;10.114;2022-07-06T03:38:55;15.00;99.90
24676;DHT22;12799;53.690;10.114;2022-07-06T03:40:57;15.00;99.90
24676;DHT22;12799;53.690;10.114;2022-07-06T03:42:59;15.00;99.90
24676;DHT22;12799;53.690;10.114;2022-07-06T03:45:01;15.00;99.90
24676;DHT22;12799;53.690;10.114;2022-07-06T03:47:05;15.00;99.90
24676;DHT22;12799;53.690;10.114;2022-07-06T03:49:07;15.00;99.90
24676;DHT22;12799;53.690;10.114;2022-07-06T03:51:09;15.00;99.90
24676;DHT22;12799;53.690;10.114;2022-07-06T03:53:12;15.00;99.90
24676;DHT22;12799;53.690;10.114;2022-07-06T03:55:14;14.90;99.90
24676;DHT22;12799;53.690;10.114;2022-07-06T03:57:16;14.90;99.90
24676;DHT22;12799;53.690;10.114;2022-07-06T03:59:18;14.90;99.90
24676;DHT22;12799;53.690;10.114;2022-07-06T04:01:20;15.00;99.90
24676;DHT22;12799;53.690;10.114;2022-07-06T04:03:23;15.00;99.90
24676;DHT22;12799;53.690;10.114;2022-07-06T04:05:25;14.90;99.90
24676;DHT22;12799;53.690;10.114;2022-07-06T04:07:27;14.90;99.90
24676;DHT22;12799;53.690;10.114;2022-07-06T04:09:29;14.90;99.90
24676;DHT22;12799;53.690;10.114;2022-07-06T04:11:31;14.90;99.90
24676;DHT22;12799;53.690;10.114;2022-07-06T04:13:33;15.00;99.90
24676;DHT22;12799;53.690;10.114;2022-07-06T04:15:35;14.90;99.90
24676;DHT22;12799;53.690;10.114;2022-07-06T04:17:37;14.80;99.90
24676;DHT22;12799;53.690;10.114;2022-07-06T04:20:04;14.80;99.90
24676;DHT22;12799;53.690;10.114;2022-07-06T04:22:06;14.80;99.90
24676;DHT22;12799;53.690;10.114;2022-07-06T04:24:08;14.80;99.90
24676;DHT22;12799;53.690;10.114;2022-07-06T04:26:10;14.70;99.90
24676;DHT22;12799;53.690;10.114;2022-07-06T04:28:12;14.70;99.90
24676;DHT22;12799;53.690;10.114;2022-07-06T04:30:14;14.80;99.90
24676;DHT22;12799;53.690;10.114;2022-07-06T04:32:16;14.70;99.90
24676;DHT22;12799;53.690;10.114;2022-07-06T04:34:18;14.70;99.90
24676;DHT22;12799;53.690;10.114;2022-07-06T04:36:22;14.70;99.90
24676;DHT22;12799;53.690;10.114;2022-07-06T04:38:23;14.70;99.90
24676;DHT22;12799;53.690;10.114;2022-07-06T04:40:26;14.70;99.90
24676;DHT22;12799;53.690;10.114;2022-07-06T04:42:28;14.70;99.90
24676;DHT22;12799;53.690;10.114;2022-07-06T04:44:30;14.70;99.90
24676;DHT22;12799;53.690;10.114;2022-07-06T04:46:32;14.70;99.90
24676;DHT22;12799;53.690;10.114;2022-07-06T04:48:34;14.70;99.90
24676;DHT22;12799;53.690;10.114;2022-07-06T04:50:39;14.70;99.90
24676;DHT22;12799;53.690;10.114;2022-07-06T04:52:43;14.70;99.90
24676;DHT22;12799;53.690;10.114;2022-07-06T04:54:44;14.70;99.90
24676;DHT22;12799;53.690;10.114;2022-07-06T04:56:46;14.70;99.90
24676;DHT22;12799;53.690;10.114;2022-07-06T04:58:48;14.70;99.90
24676;DHT22;12799;53.690;10.114;2022-07-06T05:00:51;14.80;99.90
24676;DHT22;12799;53.690;10.114;2022-07-06T05:02:54;14.80;99.90
24676;DHT22;12799;53.690;10.114;2022-07-06T05:04:56;14.80;99.90
24676;DHT22;12799;53.690;10.114;2022-07-06T05:06:58;14.80;99.90
24676;DHT22;12799;53.690;10.114;2022-07-06T05:09:02;14.80;99.90
24676;DHT22;12799;53.690;10.114;2022-07-06T05:11:04;14.80;99.90
24676;DHT22;12799;53.690;10.114;2022-07-06T05:13:06;14.80;99.90
24676;DHT22;12799;53.690;10.114;2022-07-06T05:15:09;14.80;99.90
24676;DHT22;12799;53.690;10.114;2022-07-06T05:17:11;14.80;99.90
24676;DHT22;12799;53.690;10.114;2022-07-06T05:19:13;14.80;99.90
24676;DHT22;12799;53.690;10.114;2022-07-06T05:21:15;14.70;99.90
24676;DHT22;12799;53.690;10.114;2022-07-06T05:23:17;14.70;99.90
24676;DHT22;12799;53.690;10.114;2022-07-06T05:25:21;14.80;99.90
24676;DHT22;12799;53.690;10.114;2022-07-06T05:27:23;14.70;99.90
24676;DHT22;12799;53.690;10.114;2022-07-06T05:29:24;14.70;99.90
24676;DHT22;12799;53.690;10.114;2022-07-06T05:31:26;14.80;99.90
24676;DHT22;12799;53.690;10.114;2022-07-06T05:33:28;14.90;99.90
24676;DHT22;12799;53.690;10.114;2022-07-06T05:35:30;14.90;99.90
24676;DHT22;12799;53.690;10.114;2022-07-06T05:37:32;14.90;99.90
24676;DHT22;12799;53.690;10.114;2022-07-06T05:39:34;15.00;99.90
24676;DHT22;12799;53.690;10.114;2022-07-06T05:41:38;14.90;99.90
24676;DHT22;12799;53.690;10.114;2022-07-06T05:43:39;14.90;99.90
24676;DHT22;12799;53.690;10.114;2022-07-06T05:45:41;15.00;99.90
24676;DHT22;12799;53.690;10.114;2022-07-06T05:47:43;15.00;99.90
24676;DHT22;12799;53.690;10.114;2022-07-06T05:50:11;15.00;99.90
24676;DHT22;12799;53.690;10.114;2022-07-06T05:52:14;15.10;99.90
24676;DHT22;12799;53.690;10.114;2022-07-06T05:54:16;15.10;99.90
24676;DHT22;12799;53.690;10.114;2022-07-06T05:56:18;15.20;99.90
24676;DHT22;12799;53.690;10.114;2022-07-06T05:58:21;15.20;99.90
24676;DHT22;12799;53.690;10.114;2022-07-06T06:00:26;15.30;99.90
24676;DHT22;12799;53.690;10.114;2022-07-06T06:02:36;15.20;99.90
24676;DHT22;12799;53.690;10.114;2022-07-06T06:04:38;15.30;99.90
24676;DHT22;12799;53.690;10.114;2022-07-06T06:06:40;15.30;99.90
24676;DHT22;12799;53.690;10.114;2022-07-06T06:08:42;15.30;99.90
24676;DHT22;12799;53.690;10.114;2022-07-06T06:10:44;15.30;99.90
24676;DHT22;12799;53.690;10.114;2022-07-06T06:12:46;15.30;99.90
24676;DHT22;12799;53.690;10.114;2022-07-06T06:14:49;15.40;99.90
24676;DHT22;12799;53.690;10.114;2022-07-06T06:16:52;15.40;99.90
24676;DHT22;12799;53.690;10.114;2022-07-06T06:18:54;15.40;99.90
24676;DHT22;12799;53.690;10.114;2022-07-06T06:20:56;15.40;99.90
24676;DHT22;12799;53.690;10.114;2022-07-06T06:22:58;15.40;99.90
24676;DHT22;12799;53.690;10.114;2022-07-06T06:25:00;15.50;99.90
24676;DHT22;12799;53.690;10.114;2022-07-06T06:27:03;15.50;99.90
24676;DHT22;12799;53.690;10.114;2022-07-06T06:29:05;15.60;99.90
24676;DHT22;12799;53.690;10.114;2022-07-06T06:31:08;15.60;99.90
24676;DHT22;12799;53.690;10.114;2022-07-06T06:33:13;15.60;99.90
24676;DHT22;12799;53.690;10.114;2022-07-06T06:35:16;15.70;99.90
24676;DHT22;12799;53.690;10.114;2022-07-06T06:37:18;15.70;99.90
24676;DHT22;12799;53.690;10.114;2022-07-06T06:39:20;15.70;99.90
24676;DHT22;12799;53.690;10.114;2022-07-06T06:41:22;15.70;99.90
24676;DHT22;12799;53.690;10.114;2022-07-06T06:43:24;15.80;99.90
24676;DHT22;12799;53.690;10.114;2022-07-06T06:45:27;15.80;99.90
24676;DHT22;12799;53.690;10.114;2022-07-06T06:47:31;15.90;99.90
24676;DHT22;12799;53.690;10.114;2022-07-06T06:49:33;15.90;99.90
24676;DHT22;12799;53.690;10.114;2022-07-06T06:51:52;15.90;99.90
24676;DHT22;12799;53.690;10.114;2022-07-06T06:53:54;15.90;99.90
24676;DHT22;12799;53.690;10.114;2022-07-06T06:55:56;15.90;99.90
24676;DHT22;12799;53.690;10.114;2022-07-06T06:58:28;16.00;99.90
24676;DHT22;12799;53.690;10.114;2022-07-06T07:00:42;16.00;99.90
24676;DHT22;12799;53.690;10.114;2022-07-06T07:02:54;16.10;99.90
24676;DHT22;12799;53.690;10.114;2022-07-06T07:05:11;16.10;99.90
24676;DHT22;12799;53.690;10.114;2022-07-06T07:07:13;16.10;99.90
24676;DHT22;12799;53.690;10.114;2022-07-06T07:09:16;16.10;99.90
24676;DHT22;12799;53.690;10.114;2022-07-06T07:11:18;16.20;99.90
24676;DHT22;12799;53.690;10.114;2022-07-06T07:13:20;16.20;99.90
24676;DHT22;12799;53.690;10.114;2022-07-06T07:15:22;16.20;99.90
24676;DHT22;12799;53.690;10.114;2022-07-06T07:17:24;16.10;99.90
24676;DHT22;12799;53.690;10.114;2022-07-06T07:19:27;16.00;99.90
24676;DHT22;12799;53.690;10.114;2022-07-06T07:21:29;16.10;99.90
24676;DHT22;12799;53.690;10.114;2022-07-06T07:23:31;16.10;99.90
24676;DHT22;12799;53.690;10.114;2022-07-06T07:25:34;16.10;99.90
24676;DHT22;12799;53.690;10.114;2022-07-06T07:27:45;16.20;99.90
24676;DHT22;12799;53.690;10.114;2022-07-06T07:29:47;16.20;99.90
24676;DHT22;12799;53.690;10.114;2022-07-06T07:31:49;16.20;99.90
24676;DHT22;12799;53.690;10.114;2022-07-06T07:33:51;16.20;99.90
24676;DHT22;12799;53.690;10.114;2022-07-06T07:35:56;16.20;99.90
24676;DHT22;12799;53.690;10.114;2022-07-06T07:37:58;16.20;99.90
24676;DHT22;12799;53.690;10.114;2022-07-06T07:40:00;16.10;99.90
24676;DHT22;12799;53.690;10.114;2022-07-06T07:42:03;16.20;99.90
24676;DHT22;12799;53.690;10.114;2022-07-06T07:44:05;16.20;99.90
24676;DHT22;12799;53.690;10.114;2022-07-06T07:46:07;16.20;99.90
24676;DHT22;12799;53.690;10.114;2022-07-06T07:48:09;16.20;99.90
24676;DHT22;12799;53.690;10.114;2022-07-06T07:50:12;16.20;99.90
24676;DHT22;12799;53.690;10.114;2022-07-06T07:52:15;16.20;99.90
24676;DHT22;12799;53.690;10.114;2022-07-06T08:11:42;16.60;99.90
24676;DHT22;12799;53.690;10.114;2022-07-06T08:18:49;16.70;99.90
24676;DHT22;12799;53.690;10.114;2022-07-06T08:20:52;16.70;99.90
24676;DHT22;12799;53.690;10.114;2022-07-06T08:22:57;16.80;99.90
24676;DHT22;12799;53.690;10.114;2022-07-06T08:24:59;16.70;99.90
24676;DHT22;12799;53.690;10.114;2022-07-06T08:27:03;16.80;99.90
24676;DHT22;12799;53.690;10.114;2022-07-06T08:29:05;16.70;99.90
24676;DHT22;12799;53.690;10.114;2022-07-06T08:31:07;16.80;99.90
24676;DHT22;12799;53.690;10.114;2022-07-06T08:33:09;17.00;99.90
24676;DHT22;12799;53.690;10.114;2022-07-06T08:35:11;17.00;99.90
24676;DHT22;12799;53.690;10.114;2022-07-06T08:37:13;16.90;99.90
24676;DHT22;12799;53.690;10.114;2022-07-06T08:39:15;17.00;99.90
24676;DHT22;12799;53.690;10.114;2022-07-06T08:41:21;17.10;99.90
24676;DHT22;12799;53.690;10.114;2022-07-06T08:43:26;17.10;99.90
24676;DHT22;12799;53.690;10.114;2022-07-06T08:45:29;17.20;99.90
24676;DHT22;12799;53.690;10.114;2022-07-06T08:47:35;17.30;99.90
24676;DHT22;12799;53.690;10.114;2022-07-06T08:49:38;17.30;99.90
24676;DHT22;12799;53.690;10.114;2022-07-06T08:51:41;17.30;99.90
24676;DHT22;12799;53.690;10.114;2022-07-06T08:53:44;17.40;99.90
24676;DHT22;12799;53.690;10.114;2022-07-06T08:55:50;17.40;99.90
24676;DHT22;12799;53.690;10.114;2022-07-06T08:57:52;17.40;99.90
24676;DHT22;12799;53.690;10.114;2022-07-06T08:59:57;17.30;99.90
24676;DHT22;12799;53.690;10.114;2022-07-06T09:01:59;17.10;99.90
24676;DHT22;12799;53.690;10.114;2022-07-06T09:04:03;17.00;99.90
24676;DHT22;12799;53.690;10.114;2022-07-06T09:06:07;16.90;99.90
24676;DHT22;12799;53.690;10.114;2022-07-06T09:08:09;16.90;99.90
24676;DHT22;12799;53.690;10.114;2022-07-06T09:10:12;17.00;99.90
24676;DHT22;12799;53.690;10.114;2022-07-06T09:12:13;17.00;99.90
24676;DHT22;12799;53.690;10.114;2022-07-06T09:14:16;17.00;99.90
24676;DHT22;12799;53.690;10.114;2022-07-06T09:16:26;17.00;99.90
24676;DHT22;12799;53.690;10.114;2022-07-06T09:18:30;17.00;99.90
24676;DHT22;12799;53.690;10.114;2022-07-06T09:20:32;17.00;99.90
24676;DHT22;12799;53.690;10.114;2022-07-06T09:22:34;17.00;99.90
24676;DHT22;12799;53.690;10.114;2022-07-06T09:24:42;17.10;99.90
24676;DHT22;12799;53.690;10.114;2022-07-06T09:26:45;17.10;99.90
24676;DHT22;12799;53.690;10.114;2022-07-06T09:28:49;17.00;99.90
24676;DHT22;12799;53.690;10.114;2022-07-06T09:30:54;17.00;99.90
24676;DHT22;12799;53.690;10.114;2022-07-06T09:32:58;17.10;99.90
24676;DHT22;12799;53.690;10.114;2022-07-06T09:35:00;17.20;99.90
24676;DHT22;12799;53.690;10.114;2022-07-06T09:37:03;17.20;99.90
24676;DHT22;12799;53.690;10.114;2022-07-06T09:39:25;17.40;99.90
24676;DHT22;12799;53.690;10.114;2022-07-06T09:41:31;17.50;99.90
24676;DHT22;12799;53.690;10.114;2022-07-06T09:43:34;17.70;99.90
24676;DHT22;12799;53.690;10.114;2022-07-06T09:45:38;17.70;99.90
24676;DHT22;12799;53.690;10.114;2022-07-06T09:47:46;17.90;99.90
24676;DHT22;12799;53.690;10.114;2022-07-06T09:49:50;17.90;99.90
24676;DHT22;12799;53.690;10.114;2022-07-06T09:51:58;18.00;99.90
24676;DHT22;12799;53.690;10.114;2022-07-06T09:54:00;18.20;99.90
24676;DHT22;12799;53.690;10.114;2022-07-06T09:56:05;18.20;99.90
24676;DHT22;12799;53.690;10.114;2022-07-06T09:58:07;18.40;99.90
24676;DHT22;12799;53.690;10.114;2022-07-06T10:00:10;18.30;99.90
24676;DHT22;12799;53.690;10.114;2022-07-06T10:02:12;18.50;99.90
24676;DHT22;12799;53.690;10.114;2022-07-06T10:04:16;18.40;99.90
24676;DHT22;12799;53.690;10.114;2022-07-06T10:06:23;18.40;99.90
24676;DHT22;12799;53.690;10.114;2022-07-06T10:08:27;18.50;99.90
24676;DHT22;12799;53.690;10.114;2022-07-06T10:10:30;18.40;99.90
24676;DHT22;12799;53.690;10.114;2022-07-06T10:12:32;18.30;99.90
24676;DHT22;12799;53.690;10.114;2022-07-06T10:14:38;18.20;99.90
24676;DHT22;12799;53.690;10.114;2022-07-06T10:16:41;18.00;99.90
24676;DHT22;12799;53.690;10.114;2022-07-06T10:18:44;18.00;99.90
24676;DHT22;12799;53.690;10.114;2022-07-06T10:20:46;18.00;99.90
24676;DHT22;12799;53.690;10.114;2022-07-06T10:22:50;18.00;99.90
24676;DHT22;12799;53.690;10.114;2022-07-06T10:24:52;17.80;99.90
24676;DHT22;12799;53.690;10.114;2022-07-06T10:26:55;17.90;99.90
24676;DHT22;12799;53.690;10.114;2022-07-06T10:28:58;17.80;99.90
24676;DHT22;12799;53.690;10.114;2022-07-06T10:31:01;17.70;99.90
24676;DHT22;12799;53.690;10.114;2022-07-06T10:33:04;17.70;99.90
24676;DHT22;12799;53.690;10.114;2022-07-06T10:35:07;17.70;99.90
24676;DHT22;12799;53.690;10.114;2022-07-06T10:37:22;17.70;99.90
24676;DHT22;12799;53.690;10.114;2022-07-06T10:39:35;17.70;99.90
24676;DHT22;12799;53.690;10.114;2022-07-06T10:41:55;17.80;99.90
24676;DHT22;12799;53.690;10.114;2022-07-06T10:43:58;17.80;99.90
24676;DHT22;12799;53.690;10.114;2022-07-06T10:46:16;17.80;99.90
24676;DHT22;12799;53.690;10.114;2022-07-06T10:48:21;17.90;99.90
24676;DHT22;12799;53.690;10.114;2022-07-06T10:50:23;17.80;99.90
24676;DHT22;12799;53.690;10.114;2022-07-06T10:52:48;17.90;99.90
24676;DHT22;12799;53.690;10.114;2022-07-06T10:54:56;17.90;99.90
24676;DHT22;12799;53.690;10.114;2022-07-06T10:57:08;17.90;99.90
24676;DHT22;12799;53.690;10.114;2022-07-06T10:59:11;18.10;99.90
24676;DHT22;12799;53.690;10.114;2022-07-06T11:01:14;18.20;99.90
24676;DHT22;12799;53.690;10.114;2022-07-06T11:14:11;18.60;99.90
24676;DHT22;12799;53.690;10.114;2022-07-06T11:16:14;18.70;99.90
24676;DHT22;12799;53.690;10.114;2022-07-06T11:18:19;18.80;99.90
24676;DHT22;12799;53.690;10.114;2022-07-06T11:20:23;18.90;99.90
24676;DHT22;12799;53.690;10.114;2022-07-06T11:22:27;19.10;99.90
24676;DHT22;12799;53.690;10.114;2022-07-06T11:28:53;19.80;99.90
24676;DHT22;12799;53.690;10.114;2022-07-06T11:30:57;20.10;99.90
24676;DHT22;12799;53.690;10.114;2022-07-06T11:35:37;20.50;99.90
24676;DHT22;12799;53.690;10.114;2022-07-06T11:37:39;20.60;99.90
24676;DHT22;12799;53.690;10.114;2022-07-06T11:39:45;20.70;99.90
24676;DHT22;12799;53.690;10.114;2022-07-06T11:41:47;20.70;99.90
24676;DHT22;12799;53.690;10.114;2022-07-06T11:43:49;20.80;99.90
24676;DHT22;12799;53.690;10.114;2022-07-06T11:45:52;20.80;99.90
24676;DHT22;12799;53.690;10.114;2022-07-06T11:50:22;20.90;99.90
24676;DHT22;12799;53.690;10.114;2022-07-06T11:52:24;21.10;99.90
24676;DHT22;12799;53.690;10.114;2022-07-06T11:54:27;21.20;99.90
24676;DHT22;12799;53.690;10.114;2022-07-06T11:56:29;21.40;99.90
24676;DHT22;12799;53.690;10.114;2022-07-06T11:58:32;21.20;99.90
24676;DHT22;12799;53.690;10.114;2022-07-06T12:00:35;21.10;99.90
24676;DHT22;12799;53.690;10.114;2022-07-06T12:02:37;21.00;99.90
24676;DHT22;12799;53.690;10.114;2022-07-06T12:04:42;20.80;99.90
24676;DHT22;12799;53.690;10.114;2022-07-06T12:06:45;20.70;99.90
24676;DHT22;12799;53.690;10.114;2022-07-06T12:08:49;20.50;99.90
24676;DHT22;12799;53.690;10.114;2022-07-06T12:10:51;20.40;99.90
24676;DHT22;12799;53.690;10.114;2022-07-06T12:13:02;20.30;99.90
24676;DHT22;12799;53.690;10.114;2022-07-06T12:15:05;20.20;99.90
24676;DHT22;12799;53.690;10.114;2022-07-06T12:17:08;20.10;99.90
24676;DHT22;12799;53.690;10.114;2022-07-06T12:19:11;20.00;99.90
24676;DHT22;12799;53.690;10.114;2022-07-06T12:21:15;20.00;99.90
24676;DHT22;12799;53.690;10.114;2022-07-06T12:23:19;20.10;99.90
24676;DHT22;12799;53.690;10.114;2022-07-06T12:25:29;20.10;99.90
24676;DHT22;12799;53.690;10.114;2022-07-06T12:27:34;20.40;99.90
24676;DHT22;12799;53.690;10.114;2022-07-06T12:29:36;20.30;99.90
24676;DHT22;12799;53.690;10.114;2022-07-06T12:31:39;20.50;99.90
24676;DHT22;12799;53.690;10.114;2022-07-06T12:33:56;20.60;99.90
24676;DHT22;12799;53.690;10.114;2022-07-06T12:36:12;20.70;99.90
24676;DHT22;12799;53.690;10.114;2022-07-06T12:38:23;20.70;99.90
24676;DHT22;12799;53.690;10.114;2022-07-06T12:40:26;20.80;99.90
24676;DHT22;12799;53.690;10.114;2022-07-06T12:42:29;20.70;99.90
24676;DHT22;12799;53.690;10.114;2022-07-06T12:44:31;20.70;99.90
24676;DHT22;12799;53.690;10.114;2022-07-06T12:46:35;20.70;99.90
24676;DHT22;12799;53.690;10.114;2022-07-06T12:48:51;20.80;99.90
24676;DHT22;12799;53.690;10.114;2022-07-06T12:50:56;20.90;99.90
24676;DHT22;12799;53.690;10.114;2022-07-06T12:52:59;20.80;99.90
24676;DHT22;12799;53.690;10.114;2022-07-06T12:55:04;20.80;99.90
24676;DHT22;12799;53.690;10.114;2022-07-06T12:57:09;20.70;99.90
24676;DHT22;12799;53.690;10.114;2022-07-06T12:59:22;20.70;99.90
24676;DHT22;12799;53.690;10.114;2022-07-06T13:01:24;20.90;99.90
24676;DHT22;12799;53.690;10.114;2022-07-06T13:03:26;20.90;99.90
24676;DHT22;12799;53.690;10.114;2022-07-06T13:05:28;21.10;99.90
24676;DHT22;12799;53.690;10.114;2022-07-06T13:07:33;21.10;99.90
24676;DHT22;12799;53.690;10.114;2022-07-06T13:09:36;21.10;99.90
24676;DHT22;12799;53.690;10.114;2022-07-06T13:11:39;21.00;99.90
24676;DHT22;12799;53.690;10.114;2022-07-06T13:13:43;20.90;99.90
24676;DHT22;12799;53.690;10.114;2022-07-06T13:15:45;20.90;99.90
24676;DHT22;12799;53.690;10.114;2022-07-06T13:17:47;20.90;99.90
24676;DHT22;12799;53.690;10.114;2022-07-06T13:19:49;20.70;99.90
24676;DHT22;12799;53.690;10.114;2022-07-06T13:21:51;20.40;99.90
24676;DHT22;12799;53.690;10.114;2022-07-06T13:23:53;20.60;99.90
24676;DHT22;12799;53.690;10.114;2022-07-06T13:25:55;20.80;99.90
24676;DHT22;12799;53.690;10.114;2022-07-06T13:27:59;21.10;99.90
24676;DHT22;12799;53.690;10.114;2022-07-06T13:30:01;21.30;99.90